Terminal Aerodrome Forecast
Issued by NWS Cleveland, OH

Home | Current Version | Previous Version | Text Only | Print | Product List | Glossary Off
Versions: 1 2 3 4 5 6 7 8 9 10 11 12 13 14 15 16 17 18

000
FTUS41 KCLE 291900 AAA
TAFTOL
TAF AMD
KTOL 291908Z 2919/3018 22010KT 3SM -RA BR BKN008 OVC025
      TEMPO 2919/2922 2SM -RASN OVC008
     FM292200 30018G30KT 3SM -SN BR OVC004
     FM300100 31015G25KT P6SM OVC015=

USA.gov is the U.S. government's official web portal to all federal, state and local government web resources and services.